sensor_id;sensor_type;location;lat;lon;timestamp;P1;durP1;ratioP1;P2;durP2;ratioP2
56141;SDS011;42018;48.588;10.836;2024-02-16T00:02:18;9.55;;;5.97;;
56141;SDS011;42018;48.588;10.836;2024-02-16T00:05:04;8.60;;;5.53;;
56141;SDS011;42018;48.588;10.836;2024-02-16T00:07:52;8.23;;;5.72;;
56141;SDS011;42018;48.588;10.836;2024-02-16T00:10:38;7.97;;;6.00;;
56141;SDS011;42018;48.588;10.836;2024-02-16T00:13:23;9.35;;;6.50;;
56141;SDS011;42018;48.588;10.836;2024-02-16T00:16:09;7.65;;;5.40;;
56141;SDS011;42018;48.588;10.836;2024-02-16T00:18:54;8.68;;;5.55;;
56141;SDS011;42018;48.588;10.836;2024-02-16T00:21:40;8.50;;;5.97;;
56141;SDS011;42018;48.588;10.836;2024-02-16T00:24:27;9.43;;;5.90;;
56141;SDS011;42018;48.588;10.836;2024-02-16T00:27:12;8.80;;;6.25;;
56141;SDS011;42018;48.588;10.836;2024-02-16T00:29:59;7.93;;;5.30;;
56141;SDS011;42018;48.588;10.836;2024-02-16T00:32:44;9.13;;;6.20;;
56141;SDS011;42018;48.588;10.836;2024-02-16T00:35:33;8.13;;;5.95;;
56141;SDS011;42018;48.588;10.836;2024-02-16T00:38:21;9.65;;;6.35;;
56141;SDS011;42018;48.588;10.836;2024-02-16T00:41:07;9.38;;;6.18;;
56141;SDS011;42018;48.588;10.836;2024-02-16T00:43:53;8.00;;;5.47;;
56141;SDS011;42018;48.588;10.836;2024-02-16T00:46:38;8.20;;;5.28;;
56141;SDS011;42018;48.588;10.836;2024-02-16T00:49:24;7.93;;;5.50;;
56141;SDS011;42018;48.588;10.836;2024-02-16T00:52:09;7.28;;;5.30;;
56141;SDS011;42018;48.588;10.836;2024-02-16T00:54:55;8.57;;;6.10;;
56141;SDS011;42018;48.588;10.836;2024-02-16T00:57:41;8.50;;;5.53;;
56141;SDS011;42018;48.588;10.836;2024-02-16T01:00:26;8.55;;;5.40;;
56141;SDS011;42018;48.588;10.836;2024-02-16T01:03:12;7.90;;;4.90;;
56141;SDS011;42018;48.588;10.836;2024-02-16T01:05:58;8.88;;;4.78;;
56141;SDS011;42018;48.588;10.836;2024-02-16T01:08:43;8.02;;;5.07;;
56141;SDS011;42018;48.588;10.836;2024-02-16T01:11:29;8.23;;;5.72;;
56141;SDS011;42018;48.588;10.836;2024-02-16T01:14:14;9.65;;;6.45;;
56141;SDS011;42018;48.588;10.836;2024-02-16T01:17:00;9.45;;;5.13;;
56141;SDS011;42018;48.588;10.836;2024-02-16T01:19:46;7.85;;;5.13;;
56141;SDS011;42018;48.588;10.836;2024-02-16T01:22:32;10.57;;;7.25;;
56141;SDS011;42018;48.588;10.836;2024-02-16T01:25:17;8.57;;;5.50;;
56141;SDS011;42018;48.588;10.836;2024-02-16T01:28:03;10.73;;;6.07;;
56141;SDS011;42018;48.588;10.836;2024-02-16T01:30:49;7.35;;;5.40;;
56141;SDS011;42018;48.588;10.836;2024-02-16T01:33:36;7.80;;;4.90;;
56141;SDS011;42018;48.588;10.836;2024-02-16T01:36:22;6.88;;;4.90;;
56141;SDS011;42018;48.588;10.836;2024-02-16T01:39:07;6.72;;;4.57;;
56141;SDS011;42018;48.588;10.836;2024-02-16T01:41:53;8.20;;;5.28;;
56141;SDS011;42018;48.588;10.836;2024-02-16T01:44:39;8.65;;;6.15;;
56141;SDS011;42018;48.588;10.836;2024-02-16T01:47:24;8.35;;;5.22;;
56141;SDS011;42018;48.588;10.836;2024-02-16T01:50:10;8.18;;;5.18;;
56141;SDS011;42018;48.588;10.836;2024-02-16T01:52:55;7.93;;;5.32;;
56141;SDS011;42018;48.588;10.836;2024-02-16T01:55:41;7.75;;;5.28;;
56141;SDS011;42018;48.588;10.836;2024-02-16T01:58:27;8.25;;;5.05;;
56141;SDS011;42018;48.588;10.836;2024-02-16T02:01:13;8.73;;;5.55;;
56141;SDS011;42018;48.588;10.836;2024-02-16T02:03:58;9.23;;;5.88;;
56141;SDS011;42018;48.588;10.836;2024-02-16T02:06:44;8.10;;;5.22;;
56141;SDS011;42018;48.588;10.836;2024-02-16T02:09:29;8.93;;;5.95;;
56141;SDS011;42018;48.588;10.836;2024-02-16T02:12:15;9.48;;;5.80;;
56141;SDS011;42018;48.588;10.836;2024-02-16T02:15:01;7.70;;;4.80;;
56141;SDS011;42018;48.588;10.836;2024-02-16T02:17:48;6.50;;;4.65;;
56141;SDS011;42018;48.588;10.836;2024-02-16T02:20:33;9.25;;;5.75;;
56141;SDS011;42018;48.588;10.836;2024-02-16T02:23:19;9.13;;;6.35;;
56141;SDS011;42018;48.588;10.836;2024-02-16T02:26:05;10.55;;;5.63;;
56141;SDS011;42018;48.588;10.836;2024-02-16T02:28:50;8.18;;;5.35;;
56141;SDS011;42018;48.588;10.836;2024-02-16T02:31:36;8.70;;;5.55;;
56141;SDS011;42018;48.588;10.836;2024-02-16T02:34:21;9.27;;;5.20;;
56141;SDS011;42018;48.588;10.836;2024-02-16T02:37:07;7.38;;;5.03;;
56141;SDS011;42018;48.588;10.836;2024-02-16T02:39:52;7.45;;;5.20;;
56141;SDS011;42018;48.588;10.836;2024-02-16T02:42:38;8.48;;;4.75;;
56141;SDS011;42018;48.588;10.836;2024-02-16T02:45:23;9.23;;;5.90;;
56141;SDS011;42018;48.588;10.836;2024-02-16T02:48:09;10.57;;;6.78;;
56141;SDS011;42018;48.588;10.836;2024-02-16T02:50:54;8.85;;;5.90;;
56141;SDS011;42018;48.588;10.836;2024-02-16T02:53:40;7.75;;;5.78;;
56141;SDS011;42018;48.588;10.836;2024-02-16T02:56:25;10.02;;;6.10;;
56141;SDS011;42018;48.588;10.836;2024-02-16T02:59:11;9.68;;;6.20;;
56141;SDS011;42018;48.588;10.836;2024-02-16T03:01:56;9.07;;;5.38;;
56141;SDS011;42018;48.588;10.836;2024-02-16T03:04:42;8.57;;;5.38;;
56141;SDS011;42018;48.588;10.836;2024-02-16T03:07:27;7.82;;;5.13;;
56141;SDS011;42018;48.588;10.836;2024-02-16T03:10:13;8.40;;;5.18;;
56141;SDS011;42018;48.588;10.836;2024-02-16T03:13:01;8.63;;;5.97;;
56141;SDS011;42018;48.588;10.836;2024-02-16T03:15:47;11.45;;;7.40;;
56141;SDS011;42018;48.588;10.836;2024-02-16T03:18:33;12.50;;;7.18;;
56141;SDS011;42018;48.588;10.836;2024-02-16T03:21:22;8.98;;;6.20;;
56141;SDS011;42018;48.588;10.836;2024-02-16T03:24:07;11.20;;;7.38;;
56141;SDS011;42018;48.588;10.836;2024-02-16T03:26:55;9.98;;;6.82;;
56141;SDS011;42018;48.588;10.836;2024-02-16T03:29:40;10.00;;;6.65;;
56141;SDS011;42018;48.588;10.836;2024-02-16T03:32:26;9.52;;;6.38;;
56141;SDS011;42018;48.588;10.836;2024-02-16T03:35:11;9.43;;;6.50;;
56141;SDS011;42018;48.588;10.836;2024-02-16T03:37:57;11.93;;;7.03;;
56141;SDS011;42018;48.588;10.836;2024-02-16T03:40:42;8.95;;;6.22;;
56141;SDS011;42018;48.588;10.836;2024-02-16T03:43:28;9.40;;;6.35;;
56141;SDS011;42018;48.588;10.836;2024-02-16T03:46:13;9.75;;;6.00;;
56141;SDS011;42018;48.588;10.836;2024-02-16T03:48:59;10.45;;;6.05;;
56141;SDS011;42018;48.588;10.836;2024-02-16T03:51:44;11.57;;;6.85;;
56141;SDS011;42018;48.588;10.836;2024-02-16T03:54:31;8.30;;;5.95;;
56141;SDS011;42018;48.588;10.836;2024-02-16T03:57:17;9.48;;;5.75;;
56141;SDS011;42018;48.588;10.836;2024-02-16T04:00:02;8.05;;;5.63;;
56141;SDS011;42018;48.588;10.836;2024-02-16T04:02:57;8.88;;;5.97;;
56141;SDS011;42018;48.588;10.836;2024-02-16T04:05:43;10.45;;;6.47;;
56141;SDS011;42018;48.588;10.836;2024-02-16T04:08:28;8.52;;;6.00;;
56141;SDS011;42018;48.588;10.836;2024-02-16T04:11:14;6.82;;;5.47;;
56141;SDS011;42018;48.588;10.836;2024-02-16T04:14:00;9.82;;;6.78;;
56141;SDS011;42018;48.588;10.836;2024-02-16T04:16:46;9.85;;;6.20;;
56141;SDS011;42018;48.588;10.836;2024-02-16T04:19:31;9.35;;;5.65;;
56141;SDS011;42018;48.588;10.836;2024-02-16T04:22:16;9.23;;;6.07;;
56141;SDS011;42018;48.588;10.836;2024-02-16T04:25:02;9.63;;;6.72;;
56141;SDS011;42018;48.588;10.836;2024-02-16T04:27:49;10.85;;;6.20;;
56141;SDS011;42018;48.588;10.836;2024-02-16T04:30:34;9.40;;;6.10;;
56141;SDS011;42018;48.588;10.836;2024-02-16T04:33:20;13.55;;;6.80;;
56141;SDS011;42018;48.588;10.836;2024-02-16T04:36:06;9.95;;;6.45;;
56141;SDS011;42018;48.588;10.836;2024-02-16T04:38:52;8.68;;;5.78;;
56141;SDS011;42018;48.588;10.836;2024-02-16T04:41:41;7.45;;;4.97;;
56141;SDS011;42018;48.588;10.836;2024-02-16T04:44:26;7.20;;;4.82;;
56141;SDS011;42018;48.588;10.836;2024-02-16T04:47:12;9.10;;;4.68;;
56141;SDS011;42018;48.588;10.836;2024-02-16T04:49:58;7.90;;;4.47;;
56141;SDS011;42018;48.588;10.836;2024-02-16T04:52:44;5.75;;;4.18;;
56141;SDS011;42018;48.588;10.836;2024-02-16T04:55:30;8.93;;;5.00;;
56141;SDS011;42018;48.588;10.836;2024-02-16T04:58:16;6.57;;;4.43;;
56141;SDS011;42018;48.588;10.836;2024-02-16T05:01:04;7.00;;;4.50;;
56141;SDS011;42018;48.588;10.836;2024-02-16T05:03:52;6.30;;;4.05;;
56141;SDS011;42018;48.588;10.836;2024-02-16T05:06:40;5.68;;;3.80;;
56141;SDS011;42018;48.588;10.836;2024-02-16T05:09:26;8.05;;;4.80;;
56141;SDS011;42018;48.588;10.836;2024-02-16T05:12:11;7.70;;;5.70;;
56141;SDS011;42018;48.588;10.836;2024-02-16T05:14:57;7.10;;;5.22;;
56141;SDS011;42018;48.588;10.836;2024-02-16T05:17:42;6.75;;;4.82;;
56141;SDS011;42018;48.588;10.836;2024-02-16T05:20:34;6.40;;;4.57;;
56141;SDS011;42018;48.588;10.836;2024-02-16T05:23:20;7.78;;;5.00;;
56141;SDS011;42018;48.588;10.836;2024-02-16T05:26:06;7.80;;;5.10;;
56141;SDS011;42018;48.588;10.836;2024-02-16T05:28:51;8.35;;;5.78;;
56141;SDS011;42018;48.588;10.836;2024-02-16T05:31:37;9.23;;;5.57;;
56141;SDS011;42018;48.588;10.836;2024-02-16T05:34:22;6.90;;;5.20;;
56141;SDS011;42018;48.588;10.836;2024-02-16T05:37:08;6.97;;;4.43;;
56141;SDS011;42018;48.588;10.836;2024-02-16T05:39:54;9.05;;;4.85;;
56141;SDS011;42018;48.588;10.836;2024-02-16T05:42:42;7.30;;;4.55;;
56141;SDS011;42018;48.588;10.836;2024-02-16T05:45:27;6.68;;;4.13;;
56141;SDS011;42018;48.588;10.836;2024-02-16T05:48:13;9.13;;;5.95;;
56141;SDS011;42018;48.588;10.836;2024-02-16T05:51:01;7.88;;;5.30;;
56141;SDS011;42018;48.588;10.836;2024-02-16T05:53:47;9.43;;;5.72;;
56141;SDS011;42018;48.588;10.836;2024-02-16T05:56:33;7.25;;;4.50;;
56141;SDS011;42018;48.588;10.836;2024-02-16T05:59:19;7.65;;;4.50;;
56141;SDS011;42018;48.588;10.836;2024-02-16T06:02:05;6.35;;;4.22;;
56141;SDS011;42018;48.588;10.836;2024-02-16T06:04:52;6.47;;;4.10;;
56141;SDS011;42018;48.588;10.836;2024-02-16T06:07:38;7.40;;;4.68;;
56141;SDS011;42018;48.588;10.836;2024-02-16T06:10:24;6.05;;;3.95;;
56141;SDS011;42018;48.588;10.836;2024-02-16T06:13:10;7.53;;;4.00;;
56141;SDS011;42018;48.588;10.836;2024-02-16T06:15:56;5.70;;;3.80;;
56141;SDS011;42018;48.588;10.836;2024-02-16T06:18:42;6.85;;;3.95;;
56141;SDS011;42018;48.588;10.836;2024-02-16T06:21:27;7.35;;;4.15;;
56141;SDS011;42018;48.588;10.836;2024-02-16T06:24:13;5.60;;;3.83;;
56141;SDS011;42018;48.588;10.836;2024-02-16T06:26:58;6.05;;;3.90;;
56141;SDS011;42018;48.588;10.836;2024-02-16T06:29:44;7.22;;;4.68;;
56141;SDS011;42018;48.588;10.836;2024-02-16T06:32:29;7.50;;;4.88;;
56141;SDS011;42018;48.588;10.836;2024-02-16T06:35:16;7.05;;;4.30;;
56141;SDS011;42018;48.588;10.836;2024-02-16T06:38:02;6.85;;;4.75;;
56141;SDS011;42018;48.588;10.836;2024-02-16T06:40:47;6.25;;;3.85;;
56141;SDS011;42018;48.588;10.836;2024-02-16T06:43:33;6.05;;;3.53;;
56141;SDS011;42018;48.588;10.836;2024-02-16T06:46:18;5.93;;;3.83;;
56141;SDS011;42018;48.588;10.836;2024-02-16T06:49:04;6.55;;;4.13;;
56141;SDS011;42018;48.588;10.836;2024-02-16T06:51:50;6.35;;;3.72;;
56141;SDS011;42018;48.588;10.836;2024-02-16T06:54:35;6.15;;;3.85;;
56141;SDS011;42018;48.588;10.836;2024-02-16T06:57:21;7.63;;;4.65;;
56141;SDS011;42018;48.588;10.836;2024-02-16T07:00:07;6.53;;;4.20;;
56141;SDS011;42018;48.588;10.836;2024-02-16T07:02:53;8.32;;;4.68;;
56141;SDS011;42018;48.588;10.836;2024-02-16T07:05:39;6.40;;;4.45;;
56141;SDS011;42018;48.588;10.836;2024-02-16T07:08:26;7.70;;;5.13;;
56141;SDS011;42018;48.588;10.836;2024-02-16T07:11:11;7.30;;;4.75;;
56141;SDS011;42018;48.588;10.836;2024-02-16T07:13:58;5.95;;;4.13;;
56141;SDS011;42018;48.588;10.836;2024-02-16T07:16:44;6.57;;;4.00;;
56141;SDS011;42018;48.588;10.836;2024-02-16T07:19:30;9.35;;;4.72;;
56141;SDS011;42018;48.588;10.836;2024-02-16T07:22:15;11.65;;;7.63;;
56141;SDS011;42018;48.588;10.836;2024-02-16T07:25:01;12.82;;;9.20;;
56141;SDS011;42018;48.588;10.836;2024-02-16T07:27:49;11.88;;;7.57;;
56141;SDS011;42018;48.588;10.836;2024-02-16T07:30:35;8.45;;;5.97;;
56141;SDS011;42018;48.588;10.836;2024-02-16T07:33:24;8.77;;;4.93;;
56141;SDS011;42018;48.588;10.836;2024-02-16T07:36:10;8.82;;;5.03;;
56141;SDS011;42018;48.588;10.836;2024-02-16T07:38:55;8.70;;;4.90;;
56141;SDS011;42018;48.588;10.836;2024-02-16T07:41:41;7.93;;;5.35;;
56141;SDS011;42018;48.588;10.836;2024-02-16T07:44:27;8.68;;;5.82;;
56141;SDS011;42018;48.588;10.836;2024-02-16T07:47:13;9.75;;;5.97;;
56141;SDS011;42018;48.588;10.836;2024-02-16T07:49:59;7.78;;;5.78;;
56141;SDS011;42018;48.588;10.836;2024-02-16T07:52:44;10.63;;;6.80;;
56141;SDS011;42018;48.588;10.836;2024-02-16T07:55:30;9.60;;;6.88;;
56141;SDS011;42018;48.588;10.836;2024-02-16T07:58:15;11.30;;;7.55;;
56141;SDS011;42018;48.588;10.836;2024-02-16T08:01:01;9.52;;;7.00;;
56141;SDS011;42018;48.588;10.836;2024-02-16T08:03:46;13.35;;;7.20;;
56141;SDS011;42018;48.588;10.836;2024-02-16T08:06:33;10.25;;;7.20;;
56141;SDS011;42018;48.588;10.836;2024-02-16T08:09:18;11.73;;;7.43;;
56141;SDS011;42018;48.588;10.836;2024-02-16T08:12:04;10.85;;;7.05;;
56141;SDS011;42018;48.588;10.836;2024-02-16T08:14:52;9.77;;;6.95;;
56141;SDS011;42018;48.588;10.836;2024-02-16T08:17:37;10.95;;;7.40;;
56141;SDS011;42018;48.588;10.836;2024-02-16T08:20:23;10.85;;;7.78;;
56141;SDS011;42018;48.588;10.836;2024-02-16T08:23:08;13.52;;;8.00;;
56141;SDS011;42018;48.588;10.836;2024-02-16T08:25:54;11.50;;;7.80;;
56141;SDS011;42018;48.588;10.836;2024-02-16T08:28:39;11.40;;;8.25;;
56141;SDS011;42018;48.588;10.836;2024-02-16T08:31:29;12.63;;;7.87;;
56141;SDS011;42018;48.588;10.836;2024-02-16T08:34:14;12.82;;;8.38;;
56141;SDS011;42018;48.588;10.836;2024-02-16T08:37:00;11.95;;;8.75;;
56141;SDS011;42018;48.588;10.836;2024-02-16T08:39:47;12.70;;;9.18;;
56141;SDS011;42018;48.588;10.836;2024-02-16T08:42:32;13.98;;;8.95;;
56141;SDS011;42018;48.588;10.836;2024-02-16T08:45:18;13.18;;;9.23;;
56141;SDS011;42018;48.588;10.836;2024-02-16T08:48:03;14.13;;;9.15;;
56141;SDS011;42018;48.588;10.836;2024-02-16T08:50:49;14.63;;;8.90;;
56141;SDS011;42018;48.588;10.836;2024-02-16T08:53:35;12.07;;;8.48;;
56141;SDS011;42018;48.588;10.836;2024-02-16T08:56:21;11.02;;;8.25;;
56141;SDS011;42018;48.588;10.836;2024-02-16T08:59:07;13.73;;;9.10;;
56141;SDS011;42018;48.588;10.836;2024-02-16T09:01:53;13.13;;;9.60;;
56141;SDS011;42018;48.588;10.836;2024-02-16T09:04:38;12.40;;;8.38;;
56141;SDS011;42018;48.588;10.836;2024-02-16T09:07:25;13.65;;;8.73;;
56141;SDS011;42018;48.588;10.836;2024-02-16T09:10:11;12.52;;;8.73;;
56141;SDS011;42018;48.588;10.836;2024-02-16T09:12:57;13.48;;;8.98;;
56141;SDS011;42018;48.588;10.836;2024-02-16T09:15:42;11.50;;;8.30;;
56141;SDS011;42018;48.588;10.836;2024-02-16T09:18:27;11.52;;;8.65;;
56141;SDS011;42018;48.588;10.836;2024-02-16T09:21:13;17.02;;;9.15;;
56141;SDS011;42018;48.588;10.836;2024-02-16T09:23:59;17.77;;;9.40;;
56141;SDS011;42018;48.588;10.836;2024-02-16T09:26:46;16.63;;;10.23;;
56141;SDS011;42018;48.588;10.836;2024-02-16T09:29:32;15.90;;;10.98;;
56141;SDS011;42018;48.588;10.836;2024-02-16T09:32:18;15.10;;;10.68;;
56141;SDS011;42018;48.588;10.836;2024-02-16T09:35:04;13.25;;;9.68;;
56141;SDS011;42018;48.588;10.836;2024-02-16T09:37:49;13.35;;;10.65;;
56141;SDS011;42018;48.588;10.836;2024-02-16T09:40:35;13.77;;;10.32;;
56141;SDS011;42018;48.588;10.836;2024-02-16T09:43:28;13.48;;;9.65;;
56141;SDS011;42018;48.588;10.836;2024-02-16T09:46:14;12.98;;;9.85;;
56141;SDS011;42018;48.588;10.836;2024-02-16T09:49:01;13.63;;;10.02;;
56141;SDS011;42018;48.588;10.836;2024-02-16T09:51:48;11.70;;;9.73;;
56141;SDS011;42018;48.588;10.836;2024-02-16T09:54:33;12.00;;;9.10;;
56141;SDS011;42018;48.588;10.836;2024-02-16T09:57:19;11.55;;;8.23;;
56141;SDS011;42018;48.588;10.836;2024-02-16T10:00:05;10.07;;;8.05;;
56141;SDS011;42018;48.588;10.836;2024-02-16T10:02:57;12.57;;;9.43;;
56141;SDS011;42018;48.588;10.836;2024-02-16T10:05:43;10.85;;;8.88;;
56141;SDS011;42018;48.588;10.836;2024-02-16T10:08:28;11.98;;;8.55;;
56141;SDS011;42018;48.588;10.836;2024-02-16T10:11:14;10.60;;;9.05;;
56141;SDS011;42018;48.588;10.836;2024-02-16T10:14:01;11.00;;;9.30;;
56141;SDS011;42018;48.588;10.836;2024-02-16T10:16:58;10.80;;;8.43;;
56141;SDS011;42018;48.588;10.836;2024-02-16T10:19:54;9.70;;;8.70;;
56141;SDS011;42018;48.588;10.836;2024-02-16T10:22:40;12.40;;;8.05;;
56141;SDS011;42018;48.588;10.836;2024-02-16T10:25:26;9.90;;;7.63;;
56141;SDS011;42018;48.588;10.836;2024-02-16T10:28:11;10.68;;;7.82;;
56141;SDS011;42018;48.588;10.836;2024-02-16T10:30:59;10.85;;;8.07;;
56141;SDS011;42018;48.588;10.836;2024-02-16T10:33:50;9.10;;;7.68;;
56141;SDS011;42018;48.588;10.836;2024-02-16T10:36:38;9.68;;;7.50;;
56141;SDS011;42018;48.588;10.836;2024-02-16T10:39:26;10.38;;;8.00;;
56141;SDS011;42018;48.588;10.836;2024-02-16T10:42:12;9.57;;;7.93;;
56141;SDS011;42018;48.588;10.836;2024-02-16T10:45:00;10.43;;;8.00;;
56141;SDS011;42018;48.588;10.836;2024-02-16T10:47:45;9.80;;;7.68;;
56141;SDS011;42018;48.588;10.836;2024-02-16T10:50:34;11.80;;;7.85;;
56141;SDS011;42018;48.588;10.836;2024-02-16T10:56:09;10.05;;;7.35;;
56141;SDS011;42018;48.588;10.836;2024-02-16T10:58:55;9.00;;;6.90;;
56141;SDS011;42018;48.588;10.836;2024-02-16T11:01:41;9.05;;;7.28;;
56141;SDS011;42018;48.588;10.836;2024-02-16T11:04:46;9.40;;;7.47;;
56141;SDS011;42018;48.588;10.836;2024-02-16T11:07:35;10.35;;;8.07;;
56141;SDS011;42018;48.588;10.836;2024-02-16T11:10:20;9.13;;;7.03;;
56141;SDS011;42018;48.588;10.836;2024-02-16T11:13:06;10.00;;;7.93;;
56141;SDS011;42018;48.588;10.836;2024-02-16T11:15:57;9.80;;;7.80;;
56141;SDS011;42018;48.588;10.836;2024-02-16T11:18:45;11.55;;;7.88;;
56141;SDS011;42018;48.588;10.836;2024-02-16T11:21:34;11.52;;;8.27;;
56141;SDS011;42018;48.588;10.836;2024-02-16T11:24:20;10.00;;;7.78;;
56141;SDS011;42018;48.588;10.836;2024-02-16T11:27:15;9.93;;;8.13;;
56141;SDS011;42018;48.588;10.836;2024-02-16T11:30:05;8.93;;;7.47;;
56141;SDS011;42018;48.588;10.836;2024-02-16T11:32:51;10.23;;;7.80;;
56141;SDS011;42018;48.588;10.836;2024-02-16T11:35:36;11.68;;;7.82;;
56141;SDS011;42018;48.588;10.836;2024-02-16T11:38:22;9.52;;;7.78;;
56141;SDS011;42018;48.588;10.836;2024-02-16T11:41:07;8.93;;;7.30;;
56141;SDS011;42018;48.588;10.836;2024-02-16T11:43:58;10.20;;;7.35;;
56141;SDS011;42018;48.588;10.836;2024-02-16T11:46:45;11.77;;;8.15;;
56141;SDS011;42018;48.588;10.836;2024-02-16T11:49:30;9.27;;;7.60;;
56141;SDS011;42018;48.588;10.836;2024-02-16T11:52:16;10.00;;;8.13;;
56141;SDS011;42018;48.588;10.836;2024-02-16T11:55:01;9.82;;;8.45;;
56141;SDS011;42018;48.588;10.836;2024-02-16T11:57:48;12.93;;;8.38;;
56141;SDS011;42018;48.588;10.836;2024-02-16T12:00:35;11.20;;;8.18;;
56141;SDS011;42018;48.588;10.836;2024-02-16T12:03:24;10.10;;;8.65;;
56141;SDS011;42018;48.588;10.836;2024-02-16T12:06:19;10.88;;;7.55;;
56141;SDS011;42018;48.588;10.836;2024-02-16T12:09:06;11.98;;;7.85;;
56141;SDS011;42018;48.588;10.836;2024-02-16T12:11:54;10.07;;;8.45;;
56141;SDS011;42018;48.588;10.836;2024-02-16T12:14:40;9.10;;;7.85;;
56141;SDS011;42018;48.588;10.836;2024-02-16T12:17:26;11.80;;;8.48;;
56141;SDS011;42018;48.588;10.836;2024-02-16T12:20:11;9.63;;;7.63;;
56141;SDS011;42018;48.588;10.836;2024-02-16T12:22:58;11.55;;;7.40;;
56141;SDS011;42018;48.588;10.836;2024-02-16T12:25:47;10.32;;;7.60;;
56141;SDS011;42018;48.588;10.836;2024-02-16T12:28:32;9.05;;;6.80;;
56141;SDS011;42018;48.588;10.836;2024-02-16T12:31:21;8.93;;;6.60;;
56141;SDS011;42018;48.588;10.836;2024-02-16T12:34:07;8.07;;;6.00;;
56141;SDS011;42018;48.588;10.836;2024-02-16T12:36:53;9.32;;;6.65;;
56141;SDS011;42018;48.588;10.836;2024-02-16T12:39:39;7.95;;;5.85;;
56141;SDS011;42018;48.588;10.836;2024-02-16T12:42:25;8.00;;;5.90;;
56141;SDS011;42018;48.588;10.836;2024-02-16T12:45:10;8.55;;;6.10;;
56141;SDS011;42018;48.588;10.836;2024-02-16T12:47:56;7.50;;;5.50;;
56141;SDS011;42018;48.588;10.836;2024-02-16T12:50:41;8.73;;;5.93;;
56141;SDS011;42018;48.588;10.836;2024-02-16T12:53:27;8.13;;;6.07;;
56141;SDS011;42018;48.588;10.836;2024-02-16T12:56:15;9.50;;;6.38;;
56141;SDS011;42018;48.588;10.836;2024-02-16T12:59:01;8.05;;;5.60;;
56141;SDS011;42018;48.588;10.836;2024-02-16T13:01:47;8.55;;;5.78;;
56141;SDS011;42018;48.588;10.836;2024-02-16T13:04:32;8.88;;;5.78;;
56141;SDS011;42018;48.588;10.836;2024-02-16T13:07:18;10.02;;;6.65;;
56141;SDS011;42018;48.588;10.836;2024-02-16T13:10:04;8.40;;;6.40;;
56141;SDS011;42018;48.588;10.836;2024-02-16T13:12:50;8.70;;;6.10;;
56141;SDS011;42018;48.588;10.836;2024-02-16T13:15:36;10.55;;;6.00;;
56141;SDS011;42018;48.588;10.836;2024-02-16T13:18:21;8.38;;;6.00;;
56141;SDS011;42018;48.588;10.836;2024-02-16T13:21:07;8.73;;;5.57;;
56141;SDS011;42018;48.588;10.836;2024-02-16T13:23:52;9.30;;;5.63;;
56141;SDS011;42018;48.588;10.836;2024-02-16T13:26:38;8.73;;;5.63;;
56141;SDS011;42018;48.588;10.836;2024-02-16T13:29:23;8.00;;;5.47;;
56141;SDS011;42018;48.588;10.836;2024-02-16T13:32:09;8.85;;;5.50;;
56141;SDS011;42018;48.588;10.836;2024-02-16T13:34:55;7.90;;;5.53;;
56141;SDS011;42018;48.588;10.836;2024-02-16T13:37:40;7.78;;;5.25;;
56141;SDS011;42018;48.588;10.836;2024-02-16T13:40:26;8.68;;;6.03;;
56141;SDS011;42018;48.588;10.836;2024-02-16T13:43:11;8.45;;;5.72;;
56141;SDS011;42018;48.588;10.836;2024-02-16T13:45:57;7.97;;;5.15;;
56141;SDS011;42018;48.588;10.836;2024-02-16T13:48:43;7.32;;;5.50;;
56141;SDS011;42018;48.588;10.836;2024-02-16T13:51:29;10.90;;;5.93;;
56141;SDS011;42018;48.588;10.836;2024-02-16T13:54:14;9.40;;;5.88;;
56141;SDS011;42018;48.588;10.836;2024-02-16T13:57:00;9.32;;;6.00;;
56141;SDS011;42018;48.588;10.836;2024-02-16T13:59:46;9.52;;;5.70;;
56141;SDS011;42018;48.588;10.836;2024-02-16T14:02:31;9.07;;;5.50;;
56141;SDS011;42018;48.588;10.836;2024-02-16T14:05:18;9.35;;;6.28;;
56141;SDS011;42018;48.588;10.836;2024-02-16T14:08:04;9.60;;;6.60;;
56141;SDS011;42018;48.588;10.836;2024-02-16T14:10:50;8.95;;;6.18;;
56141;SDS011;42018;48.588;10.836;2024-02-16T14:13:36;9.10;;;6.80;;
56141;SDS011;42018;48.588;10.836;2024-02-16T14:16:21;9.32;;;6.13;;
56141;SDS011;42018;48.588;10.836;2024-02-16T14:19:07;8.68;;;6.05;;
56141;SDS011;42018;48.588;10.836;2024-02-16T14:21:52;9.70;;;7.10;;
56141;SDS011;42018;48.588;10.836;2024-02-16T14:24:38;9.80;;;7.05;;
56141;SDS011;42018;48.588;10.836;2024-02-16T14:27:23;10.88;;;6.78;;
56141;SDS011;42018;48.588;10.836;2024-02-16T14:30:09;9.60;;;6.85;;
56141;SDS011;42018;48.588;10.836;2024-02-16T14:32:55;10.73;;;6.47;;
56141;SDS011;42018;48.588;10.836;2024-02-16T14:35:40;9.85;;;6.50;;
56141;SDS011;42018;48.588;10.836;2024-02-16T14:38:26;9.55;;;6.35;;
56141;SDS011;42018;48.588;10.836;2024-02-16T14:41:12;8.85;;;5.72;;
56141;SDS011;42018;48.588;10.836;2024-02-16T14:43:58;8.85;;;5.55;;
56141;SDS011;42018;48.588;10.836;2024-02-16T14:46:45;9.57;;;5.97;;
56141;SDS011;42018;48.588;10.836;2024-02-16T14:49:31;8.73;;;6.18;;
56141;SDS011;42018;48.588;10.836;2024-02-16T14:52:16;10.55;;;6.45;;
56141;SDS011;42018;48.588;10.836;2024-02-16T14:55:02;8.05;;;6.10;;
56141;SDS011;42018;48.588;10.836;2024-02-16T14:57:48;9.35;;;6.72;;
56141;SDS011;42018;48.588;10.836;2024-02-16T15:00:33;9.38;;;6.20;;
56141;SDS011;42018;48.588;10.836;2024-02-16T15:03:22;8.73;;;6.07;;
56141;SDS011;42018;48.588;10.836;2024-02-16T15:06:08;11.88;;;6.82;;
56141;SDS011;42018;48.588;10.836;2024-02-16T15:08:53;13.93;;;6.70;;
56141;SDS011;42018;48.588;10.836;2024-02-16T15:11:39;8.57;;;5.95;;
56141;SDS011;42018;48.588;10.836;2024-02-16T15:14:24;10.02;;;6.63;;
56141;SDS011;42018;48.588;10.836;2024-02-16T15:17:10;9.25;;;6.47;;
56141;SDS011;42018;48.588;10.836;2024-02-16T15:19:55;8.98;;;5.63;;
56141;SDS011;42018;48.588;10.836;2024-02-16T15:22:41;10.13;;;6.47;;
56141;SDS011;42018;48.588;10.836;2024-02-16T15:25:27;8.85;;;6.20;;
56141;SDS011;42018;48.588;10.836;2024-02-16T15:28:12;8.77;;;6.45;;
56141;SDS011;42018;48.588;10.836;2024-02-16T15:30:58;10.15;;;6.32;;
56141;SDS011;42018;48.588;10.836;2024-02-16T15:33:44;8.00;;;5.72;;
56141;SDS011;42018;48.588;10.836;2024-02-16T15:36:30;7.63;;;5.20;;
56141;SDS011;42018;48.588;10.836;2024-02-16T15:39:15;8.13;;;5.30;;
56141;SDS011;42018;48.588;10.836;2024-02-16T15:42:01;7.55;;;5.68;;
56141;SDS011;42018;48.588;10.836;2024-02-16T15:44:46;7.18;;;5.78;;
56141;SDS011;42018;48.588;10.836;2024-02-16T15:47:32;7.43;;;5.40;;
56141;SDS011;42018;48.588;10.836;2024-02-16T15:50:17;6.25;;;4.53;;
56141;SDS011;42018;48.588;10.836;2024-02-16T15:53:03;7.03;;;5.35;;
56141;SDS011;42018;48.588;10.836;2024-02-16T15:55:49;7.30;;;5.18;;
56141;SDS011;42018;48.588;10.836;2024-02-16T15:58:34;7.72;;;5.05;;
56141;SDS011;42018;48.588;10.836;2024-02-16T16:01:20;7.28;;;5.10;;
56141;SDS011;42018;48.588;10.836;2024-02-16T16:04:05;7.53;;;5.18;;
56141;SDS011;42018;48.588;10.836;2024-02-16T16:06:51;8.05;;;5.20;;
56141;SDS011;42018;48.588;10.836;2024-02-16T16:09:37;7.22;;;5.40;;
56141;SDS011;42018;48.588;10.836;2024-02-16T16:12:23;7.65;;;5.38;;
56141;SDS011;42018;48.588;10.836;2024-02-16T16:15:09;8.30;;;5.32;;
56141;SDS011;42018;48.588;10.836;2024-02-16T16:17:54;8.52;;;5.30;;
56141;SDS011;42018;48.588;10.836;2024-02-16T16:20:40;7.75;;;4.70;;
56141;SDS011;42018;48.588;10.836;2024-02-16T16:23:26;8.30;;;5.90;;
56141;SDS011;42018;48.588;10.836;2024-02-16T16:26:12;11.32;;;8.02;;